createdAt,value
2019-03-27T00:01:06.793Z,21.40
2019-03-27T00:03:36.755Z,23.57
2019-03-27T00:06:06.951Z,25.50
2019-03-27T00:08:37.215Z,32.80
2019-03-27T00:11:07.325Z,21.67
2019-03-27T00:13:37.909Z,24.07
2019-03-27T00:16:09.367Z,31.43
2019-03-27T00:18:39.620Z,25.93
2019-03-27T00:21:10.352Z,22.67
2019-03-27T00:23:44.313Z,25.00
2019-03-27T00:26:16.576Z,25.03
2019-03-27T00:28:47.883Z,24.05
2019-03-27T00:31:19.825Z,30.20
2019-03-27T00:33:50.168Z,26.77
2019-03-27T00:36:21.536Z,29.27
2019-03-27T00:38:52.324Z,31.03
2019-03-27T00:41:23.245Z,27.27
2019-03-27T00:43:54.804Z,28.40
2019-03-27T00:46:25.206Z,31.02
2019-03-27T00:48:55.117Z,33.17
2019-03-27T00:51:25.077Z,26.30
2019-03-27T00:53:55.582Z,32.70
2019-03-27T00:56:25.476Z,28.87
2019-03-27T00:58:55.436Z,28.07
2019-03-27T01:01:25.395Z,35.43
2019-03-27T01:03:56.772Z,33.10
2019-03-27T01:06:27.300Z,33.30
2019-03-27T01:08:57.259Z,37.00
2019-03-27T01:11:27.491Z,37.07
2019-03-27T01:13:57.553Z,40.57
2019-03-27T01:16:27.472Z,38.13
2019-03-27T01:19:00.709Z,32.67
2019-03-27T01:21:30.797Z,48.92
2019-03-27T01:24:00.744Z,29.87
2019-03-27T01:26:31.683Z,36.90
2019-03-27T01:29:02.230Z,39.80
2019-03-27T01:31:32.680Z,39.83
2019-03-27T01:34:03.676Z,37.28
2019-03-27T01:36:34.610Z,44.60
2019-03-27T01:39:06.392Z,37.78
2019-03-27T01:41:36.262Z,39.53
2019-03-27T01:44:07.260Z,36.83
2019-03-27T01:46:37.136Z,42.23
2019-03-27T01:49:07.099Z,43.63
2019-03-27T01:51:41.204Z,33.33
2019-03-27T01:54:11.752Z,43.93
2019-03-27T01:56:43.520Z,40.00
2019-03-27T01:59:13.813Z,44.50
2019-03-27T02:01:44.415Z,34.67
2019-03-27T02:04:14.291Z,41.90
2019-03-27T02:06:49.126Z,42.03
2019-03-27T02:09:19.552Z,38.37
2019-03-27T02:11:49.477Z,51.50
2019-03-27T02:14:19.774Z,35.27
2019-03-27T02:16:49.685Z,36.03
2019-03-27T02:19:21.407Z,35.10
2019-03-27T02:21:52.352Z,37.70
2019-03-27T02:24:22.268Z,42.50
2019-03-27T02:26:52.217Z,38.13
2019-03-27T02:29:22.173Z,40.75
2019-03-27T02:31:52.088Z,36.90
2019-03-27T02:34:22.355Z,44.90
2019-03-27T02:36:54.619Z,47.43
2019-03-27T02:39:24.632Z,44.87
2019-03-27T02:41:54.624Z,42.20
2019-03-27T02:44:24.589Z,46.90
2019-03-27T02:46:54.513Z,47.17
2019-03-27T02:49:24.444Z,47.65
2019-03-27T02:51:54.726Z,48.53
2019-03-27T02:54:25.124Z,39.80
2019-03-27T02:56:56.145Z,52.57
2019-03-27T02:59:27.798Z,48.03
2019-03-27T03:01:57.662Z,50.20
2019-03-27T03:04:27.957Z,51.23
2019-03-27T03:06:57.925Z,56.27
2019-03-27T03:09:27.856Z,56.65
2019-03-27T03:11:59.961Z,49.07
2019-03-27T03:14:31.766Z,56.73
2019-03-27T03:17:02.803Z,50.23
2019-03-27T03:19:32.671Z,54.83
2019-03-27T03:22:06.307Z,56.13
2019-03-27T03:24:36.811Z,50.50
2019-03-27T03:27:06.742Z,55.10
2019-03-27T03:29:37.299Z,49.30
2019-03-27T03:32:07.650Z,59.67
2019-03-27T03:34:37.925Z,52.58
2019-03-27T03:37:09.949Z,53.63
2019-03-27T03:39:39.808Z,57.03
2019-03-27T03:42:11.099Z,52.25
2019-03-27T03:44:41.822Z,56.40
2019-03-27T03:47:11.708Z,60.23
2019-03-27T03:49:45.605Z,52.17
2019-03-27T03:52:16.506Z,56.10
2019-03-27T03:54:47.067Z,67.93
2019-03-27T03:57:20.297Z,64.12
2019-03-27T03:59:56.088Z,61.47
2019-03-27T04:02:29.172Z,53.90
2019-03-27T04:05:00.149Z,63.73
2019-03-27T04:07:30.634Z,62.60
2019-03-27T04:10:00.811Z,70.67
2019-03-27T04:12:31.607Z,65.90
2019-03-27T04:15:02.884Z,66.00
2019-03-27T04:17:34.116Z,67.40
2019-03-27T04:20:05.606Z,63.33
2019-03-27T04:22:39.580Z,73.95
2019-03-27T04:25:10.413Z,75.47
2019-03-27T04:27:40.870Z,72.10
2019-03-27T04:30:13.978Z,73.05
2019-03-27T04:32:45.542Z,81.03
2019-03-27T04:35:17.976Z,77.32
2019-03-27T04:37:51.588Z,69.33
2019-03-27T04:40:27.548Z,68.40
2019-03-27T04:42:57.479Z,66.40
2019-03-27T04:45:28.369Z,63.77
2019-03-27T04:47:58.567Z,63.57
2019-03-27T04:50:31.504Z,74.45
2019-03-27T04:53:01.824Z,65.10
2019-03-27T04:55:32.049Z,64.75
2019-03-27T04:58:02.064Z,68.07
2019-03-27T05:00:34.308Z,67.00
2019-03-27T05:03:04.617Z,72.23
2019-03-27T05:05:35.103Z,76.05
2019-03-27T05:08:05.695Z,70.87
2019-03-27T05:10:39.074Z,64.00
2019-03-27T05:13:09.724Z,73.33
2019-03-27T05:15:41.437Z,78.30
2019-03-27T05:18:11.414Z,73.80
2019-03-27T05:20:41.428Z,79.37
2019-03-27T05:23:11.435Z,76.33
2019-03-27T05:25:42.165Z,78.80
2019-03-27T05:28:12.662Z,68.10
2019-03-27T05:30:43.241Z,77.17
2019-03-27T05:33:13.483Z,64.50
2019-03-27T05:35:43.552Z,73.27
2019-03-27T05:38:13.941Z,65.55
2019-03-27T05:40:43.980Z,65.30
2019-03-27T05:43:18.387Z,82.10
2019-03-27T05:45:58.236Z,71.20
2019-03-27T05:48:28.499Z,77.70
2019-03-27T05:51:00.177Z,66.43
2019-03-27T05:53:31.569Z,66.00
2019-03-27T05:56:02.804Z,60.47
2019-03-27T05:58:33.619Z,71.23
2019-03-27T06:01:06.491Z,68.60
2019-03-27T06:03:37.035Z,71.50
2019-03-27T06:06:07.449Z,58.63
2019-03-27T06:08:39.336Z,62.60
2019-03-27T06:11:12.414Z,60.67
2019-03-27T06:13:45.251Z,56.57
2019-03-27T06:16:17.622Z,55.43
2019-03-27T06:18:48.238Z,55.90
2019-03-27T06:21:19.515Z,53.25
2019-03-27T06:23:50.324Z,56.40
2019-03-27T06:26:20.941Z,53.57
2019-03-27T06:28:52.657Z,50.77
2019-03-27T06:31:23.650Z,58.17
2019-03-27T06:33:53.693Z,53.75
2019-03-27T06:36:28.489Z,56.27
2019-03-27T06:38:59.597Z,55.10
2019-03-27T06:41:30.142Z,51.73
2019-03-27T06:44:00.396Z,57.70
2019-03-27T06:46:30.779Z,61.00
2019-03-27T06:49:02.232Z,58.17
2019-03-27T06:51:39.890Z,58.03
2019-03-27T06:54:04.153Z,54.70
2019-03-27T06:56:34.072Z,59.67
2019-03-27T06:59:06.699Z,69.47
2019-03-27T07:01:37.210Z,69.50
2019-03-27T07:04:10.756Z,62.20
2019-03-27T07:06:38.709Z,59.07
2019-03-27T07:09:10.372Z,62.38
2019-03-27T07:11:40.712Z,67.53
2019-03-27T07:14:10.638Z,70.32
2019-03-27T07:16:41.536Z,71.30
2019-03-27T07:19:11.989Z,69.43
2019-03-27T07:21:42.208Z,69.90
2019-03-27T07:24:12.171Z,69.50
2019-03-27T07:26:42.117Z,77.43
2019-03-27T07:29:12.124Z,61.27
2019-03-27T07:31:42.512Z,70.57
2019-03-27T07:34:13.034Z,66.63
2019-03-27T07:36:42.877Z,70.23
2019-03-27T07:39:13.673Z,69.40
2019-03-27T07:41:44.516Z,60.23
2019-03-27T07:44:16.461Z,63.53
2019-03-27T07:46:46.978Z,61.50
2019-03-27T07:49:19.475Z,60.83
2019-03-27T07:51:49.367Z,55.70
2019-03-27T07:54:20.827Z,69.03
2019-03-27T07:56:51.778Z,58.67
2019-03-27T07:59:21.836Z,61.23
2019-03-27T08:01:52.744Z,59.53
2019-03-27T08:04:24.582Z,59.77
2019-03-27T08:06:55.730Z,63.63
2019-03-27T08:09:25.940Z,60.30
2019-03-27T08:11:56.263Z,55.97
2019-03-27T08:14:26.161Z,60.10
2019-03-27T08:16:56.968Z,60.53
2019-03-27T08:19:26.893Z,62.67
2019-03-27T08:21:57.557Z,56.37
2019-03-27T08:24:28.172Z,57.87
2019-03-27T08:27:00.255Z,62.60
2019-03-27T08:29:31.016Z,65.33
2019-03-27T08:32:01.671Z,59.57
2019-03-27T08:34:31.588Z,61.50
2019-03-27T08:37:01.512Z,59.77
2019-03-27T08:39:31.680Z,63.63
2019-03-27T08:42:01.603Z,58.67
2019-03-27T08:44:31.528Z,70.23
2019-03-27T08:47:02.828Z,57.50
2019-03-27T08:49:33.434Z,59.40
2019-03-27T08:52:03.796Z,60.80
2019-03-27T08:54:34.475Z,52.80
2019-03-27T08:57:07.108Z,49.37
2019-03-27T08:59:41.933Z,53.53
2019-03-27T09:02:13.849Z,44.47
2019-03-27T09:04:45.318Z,47.83
2019-03-27T09:07:16.718Z,57.33
2019-03-27T09:09:48.531Z,51.92
2019-03-27T09:12:18.884Z,49.37
2019-03-27T09:14:49.149Z,43.20
2019-03-27T09:17:24.971Z,49.20
2019-03-27T09:19:55.939Z,49.53
2019-03-27T09:22:25.784Z,45.67
2019-03-27T09:24:56.097Z,47.00
2019-03-27T09:27:26.020Z,47.85
2019-03-27T09:29:56.561Z,48.10
2019-03-27T09:32:27.004Z,45.73
2019-03-27T09:34:58.155Z,54.27
2019-03-27T09:37:30.048Z,43.83
2019-03-27T09:40:01.307Z,45.70
2019-03-27T09:42:31.252Z,41.23
2019-03-27T09:45:01.172Z,43.57
2019-03-27T09:47:34.879Z,38.85
2019-03-27T09:50:05.787Z,31.70
2019-03-27T09:52:35.721Z,32.05
2019-03-27T09:55:08.256Z,30.37
2019-03-27T09:57:42.556Z,33.93
2019-03-27T10:00:13.774Z,32.33
2019-03-27T10:02:48.300Z,33.58
2019-03-27T10:05:19.499Z,39.38
2019-03-27T10:07:52.243Z,37.50
2019-03-27T10:10:22.147Z,36.98
2019-03-27T10:12:52.094Z,36.67
2019-03-27T10:15:22.542Z,30.82
2019-03-27T10:17:54.177Z,38.87
2019-03-27T10:20:24.673Z,33.95
2019-03-27T10:22:59.553Z,31.07
2019-03-27T10:25:33.395Z,34.77
2019-03-27T10:28:04.301Z,29.90
2019-03-27T10:30:34.707Z,29.40
2019-03-27T10:33:05.864Z,29.03
2019-03-27T10:35:37.202Z,34.83
2019-03-27T10:38:08.468Z,32.47
2019-03-27T10:40:50.658Z,30.00
2019-03-27T10:43:23.053Z,30.53
2019-03-27T10:45:53.037Z,29.30
2019-03-27T10:48:24.612Z,28.27
2019-03-27T10:50:54.513Z,29.23
2019-03-27T10:53:25.270Z,32.50
2019-03-27T10:55:56.272Z,35.20
2019-03-27T10:58:27.291Z,30.43
2019-03-27T11:00:58.177Z,27.20
2019-03-27T11:03:32.241Z,31.43
2019-03-27T11:06:02.235Z,28.80
2019-03-27T11:08:32.885Z,28.93
2019-03-27T11:11:02.871Z,26.70
2019-03-27T11:13:35.129Z,26.67
2019-03-27T11:16:05.479Z,26.80
2019-03-27T11:18:36.525Z,24.32
2019-03-27T11:21:06.460Z,27.23
2019-03-27T11:23:42.648Z,27.37
2019-03-27T11:26:18.861Z,28.10
2019-03-27T11:28:50.184Z,28.40
2019-03-27T11:31:20.060Z,26.97
2019-03-27T11:33:51.248Z,30.33
2019-03-27T11:36:21.633Z,31.00
2019-03-27T11:38:51.561Z,27.67
2019-03-27T11:41:22.840Z,30.37
2019-03-27T11:43:55.089Z,26.80
2019-03-27T11:46:25.962Z,24.90
2019-03-27T11:48:56.564Z,24.47
2019-03-27T11:51:26.798Z,28.30
2019-03-27T11:53:56.715Z,28.27
2019-03-27T11:56:27.405Z,30.85
2019-03-27T11:58:57.892Z,25.93
2019-03-27T12:01:39.223Z,26.27
2019-03-27T12:04:02.140Z,25.12
2019-03-27T12:06:32.391Z,31.00
2019-03-27T12:09:02.629Z,24.00
2019-03-27T12:11:32.587Z,23.70
2019-03-27T12:14:02.517Z,27.30
2019-03-27T12:16:32.572Z,25.63
2019-03-27T12:19:03.274Z,24.50
2019-03-27T12:21:33.338Z,24.10
2019-03-27T12:24:03.355Z,25.83
2019-03-27T12:26:33.962Z,26.43
2019-03-27T12:29:04.235Z,25.60
2019-03-27T12:31:39.800Z,27.93
2019-03-27T12:34:09.920Z,24.98
2019-03-27T12:36:40.194Z,25.27
2019-03-27T12:39:11.298Z,27.03
2019-03-27T12:41:44.252Z,30.57
2019-03-27T12:44:15.321Z,26.67
2019-03-27T12:46:51.736Z,27.10
2019-03-27T12:49:20.680Z,25.00
2019-03-27T12:51:50.833Z,27.17
2019-03-27T12:54:21.376Z,29.18
2019-03-27T12:56:51.606Z,25.30
2019-03-27T12:59:24.117Z,30.80
2019-03-27T13:01:54.892Z,24.30
2019-03-27T13:04:25.914Z,22.23
2019-03-27T13:06:56.446Z,24.80
2019-03-27T13:09:31.244Z,20.40
2019-03-27T13:12:10.549Z,23.53
2019-03-27T13:14:42.212Z,23.37
2019-03-27T13:17:12.904Z,22.90
2019-03-27T13:19:48.467Z,22.30
2019-03-27T13:22:19.565Z,20.43
2019-03-27T13:24:52.095Z,22.33
2019-03-27T13:27:29.930Z,24.57
2019-03-27T13:30:03.525Z,21.80
2019-03-27T13:32:34.627Z,22.52
2019-03-27T13:35:08.051Z,24.40
2019-03-27T13:37:41.487Z,23.77
2019-03-27T13:40:12.820Z,26.10
2019-03-27T13:42:47.954Z,24.13
2019-03-27T13:45:21.325Z,26.20
2019-03-27T13:47:54.871Z,24.50
2019-03-27T13:50:26.761Z,21.53
2019-03-27T13:52:58.228Z,24.45
2019-03-27T13:55:35.432Z,23.50
2019-03-27T13:58:10.409Z,21.57
2019-03-27T14:00:43.695Z,20.73
2019-03-27T14:03:14.616Z,18.97
2019-03-27T14:05:45.824Z,17.40
2019-03-27T14:08:17.277Z,17.87
2019-03-27T14:10:50.589Z,22.33
2019-03-27T14:13:22.920Z,22.03
2019-03-27T14:15:53.315Z,17.03
2019-03-27T14:18:25.795Z,20.17
2019-03-27T14:20:56.632Z,16.97
2019-03-27T14:23:27.218Z,17.70
2019-03-27T14:25:57.228Z,17.97
2019-03-27T14:28:27.237Z,20.37
2019-03-27T14:30:58.636Z,18.40
2019-03-27T14:33:29.153Z,19.85
2019-03-27T14:35:59.325Z,26.27
2019-03-27T14:38:30.965Z,25.67
2019-03-27T14:41:01.239Z,20.33
2019-03-27T14:43:33.894Z,19.43
2019-03-27T14:46:04.044Z,35.97
2019-03-27T14:48:35.417Z,28.90
2019-03-27T14:51:06.325Z,21.93
2019-03-27T14:53:36.573Z,43.93
2019-03-27T14:56:06.509Z,28.40
2019-03-27T14:58:36.934Z,22.40
2019-03-27T15:01:07.130Z,21.80
2019-03-27T15:03:37.053Z,19.60
2019-03-27T15:06:07.707Z,18.70
2019-03-27T15:08:38.295Z,23.13
2019-03-27T15:11:08.532Z,18.20
2019-03-27T15:13:38.474Z,30.50
2019-03-27T15:16:09.221Z,23.27
2019-03-27T15:18:39.623Z,22.33
2019-03-27T15:21:12.318Z,21.10
2019-03-27T15:23:43.964Z,17.10
2019-03-27T15:26:16.485Z,16.40
2019-03-27T15:28:50.794Z,18.37
2019-03-27T15:31:23.453Z,21.60
2019-03-27T15:33:57.886Z,21.50
2019-03-27T15:36:33.091Z,19.20
2019-03-27T15:39:07.254Z,18.03
2019-03-27T15:41:41.076Z,15.77
2019-03-27T15:44:13.939Z,17.27
2019-03-27T15:46:44.327Z,20.53
2019-03-27T15:49:14.872Z,19.70
2019-03-27T15:51:49.188Z,16.60
2019-03-27T15:54:24.124Z,19.07
2019-03-27T15:56:54.279Z,17.50
2019-03-27T15:59:26.247Z,16.07
2019-03-27T16:01:58.014Z,17.17
2019-03-27T16:04:28.072Z,17.00
2019-03-27T16:07:03.559Z,17.73
2019-03-27T16:09:33.804Z,16.50
2019-03-27T16:12:04.021Z,15.50
2019-03-27T16:14:33.980Z,18.67
2019-03-27T16:17:13.082Z,19.23
2019-03-27T16:19:36.251Z,16.10
2019-03-27T16:22:07.333Z,19.77
2019-03-27T16:24:37.385Z,18.43
2019-03-27T16:27:07.500Z,17.53
2019-03-27T16:29:37.717Z,16.83
2019-03-27T16:32:08.198Z,23.25
2019-03-27T16:34:38.459Z,16.00
2019-03-27T16:37:09.981Z,17.60
2019-03-27T16:39:40.218Z,17.50
2019-03-27T16:42:11.389Z,17.10
2019-03-27T16:44:41.829Z,14.97
2019-03-27T16:47:13.216Z,16.43
2019-03-27T16:49:43.136Z,19.73
2019-03-27T16:52:13.732Z,15.93
2019-03-27T16:54:43.977Z,19.30
2019-03-27T16:57:13.960Z,14.30
2019-03-27T16:59:44.856Z,13.80
2019-03-27T17:02:16.421Z,14.80
2019-03-27T17:04:46.560Z,19.97
2019-03-27T17:07:18.629Z,17.80
2019-03-27T17:09:48.558Z,16.65
2019-03-27T17:12:19.788Z,17.10
2019-03-27T17:14:49.761Z,19.10
2019-03-27T17:17:19.672Z,14.70
2019-03-27T17:19:49.597Z,15.15
2019-03-27T17:22:20.407Z,17.20
2019-03-27T17:24:51.519Z,17.70
2019-03-27T17:27:22.562Z,14.60
2019-03-27T17:29:53.179Z,17.57
2019-03-27T17:32:23.061Z,18.80
2019-03-27T17:34:53.341Z,15.30
2019-03-27T17:37:24.122Z,16.50
2019-03-27T17:39:54.045Z,22.20
2019-03-27T17:42:24.034Z,22.27
2019-03-27T17:44:54.736Z,19.97
2019-03-27T17:47:26.202Z,17.53
2019-03-27T17:49:56.182Z,20.03
2019-03-27T17:52:27.500Z,15.55
2019-03-27T17:55:01.295Z,25.03
2019-03-27T17:57:32.123Z,20.20
2019-03-27T18:00:05.180Z,23.63
2019-03-27T18:02:41.820Z,27.93
2019-03-27T18:05:13.330Z,30.57
2019-03-27T18:07:46.027Z,20.70
2019-03-27T18:10:17.882Z,24.24
2019-03-27T18:12:48.946Z,22.53
2019-03-27T18:15:20.442Z,25.68
2019-03-27T18:17:51.431Z,27.47
2019-03-27T18:20:22.581Z,34.50
2019-03-27T18:22:54.203Z,31.12
2019-03-27T18:25:24.595Z,34.63
2019-03-27T18:27:54.508Z,31.83
2019-03-27T18:30:24.448Z,28.77
2019-03-27T18:32:54.373Z,29.50
2019-03-27T18:35:24.551Z,34.73
2019-03-27T18:37:54.471Z,34.13
2019-03-27T18:40:24.379Z,32.73
2019-03-27T18:42:54.921Z,30.53
2019-03-27T18:45:32.837Z,31.60
2019-03-27T18:48:03.302Z,26.27
2019-03-27T18:50:33.416Z,23.93
2019-03-27T18:53:03.479Z,28.80
2019-03-27T18:55:34.398Z,31.85
2019-03-27T18:58:04.482Z,26.30
2019-03-27T19:00:34.988Z,27.30
2019-03-27T19:03:05.421Z,32.53
2019-03-27T19:05:37.032Z,28.45
2019-03-27T19:08:07.784Z,30.77
2019-03-27T19:10:38.936Z,27.60
2019-03-27T19:13:08.887Z,33.67
2019-03-27T19:15:41.212Z,30.40
2019-03-27T19:18:12.995Z,23.40
2019-03-27T19:20:43.206Z,31.10
2019-03-27T19:23:20.329Z,39.83
2019-03-27T19:25:50.833Z,29.63
2019-03-27T19:28:26.273Z,28.20
2019-03-27T19:30:55.637Z,24.90
2019-03-27T19:33:27.708Z,27.85
2019-03-27T19:35:57.668Z,33.87
2019-03-27T19:38:27.656Z,30.45
2019-03-27T19:40:59.843Z,31.17
2019-03-27T19:43:30.699Z,31.33
2019-03-27T19:46:02.509Z,32.27
2019-03-27T19:48:33.255Z,32.63
2019-03-27T19:51:03.168Z,30.00
2019-03-27T19:53:34.572Z,30.50
2019-03-27T19:56:04.545Z,31.80
2019-03-27T19:58:35.646Z,33.50
2019-03-27T20:01:07.736Z,38.33
2019-03-27T20:03:40.726Z,48.38
2019-03-27T20:06:11.706Z,45.78
2019-03-27T20:08:41.756Z,32.43
2019-03-27T20:11:11.733Z,28.27
2019-03-27T20:13:41.726Z,41.40
2019-03-27T20:16:14.130Z,34.80
2019-03-27T20:18:44.508Z,34.90
2019-03-27T20:21:18.429Z,32.97
2019-03-27T20:23:51.493Z,29.77
2019-03-27T20:26:23.411Z,25.43
2019-03-27T20:28:57.094Z,29.60
2019-03-27T20:31:27.045Z,27.53
2019-03-27T20:33:57.072Z,30.23
2019-03-27T20:36:27.844Z,28.63
2019-03-27T20:38:57.813Z,29.87
2019-03-27T20:41:27.763Z,27.77
2019-03-27T20:43:58.177Z,29.10
2019-03-27T20:46:29.380Z,24.60
2019-03-27T20:48:59.460Z,27.57
2019-03-27T20:51:32.411Z,27.60
2019-03-27T20:54:07.003Z,28.83
2019-03-27T20:56:37.940Z,28.73
2019-03-27T20:59:08.298Z,29.73
2019-03-27T21:01:39.569Z,30.30
2019-03-27T21:04:10.278Z,29.50
2019-03-27T21:06:41.147Z,27.73
2019-03-27T21:09:12.979Z,29.20
2019-03-27T21:11:43.851Z,34.43
2019-03-27T21:14:14.173Z,37.43
2019-03-27T21:16:44.670Z,34.47
2019-03-27T21:19:17.209Z,34.45
2019-03-27T21:21:51.213Z,32.70
2019-03-27T21:24:21.660Z,36.63
2019-03-27T21:26:51.985Z,36.95
2019-03-27T21:29:25.593Z,31.70
2019-03-27T21:31:59.397Z,33.53
2019-03-27T21:34:30.005Z,38.23
2019-03-27T21:37:05.433Z,33.27
2019-03-27T21:39:37.881Z,29.52
2019-03-27T21:42:08.792Z,30.93
2019-03-27T21:44:38.825Z,31.07
2019-03-27T21:47:12.979Z,28.92
2019-03-27T21:49:43.705Z,36.67
2019-03-27T21:52:14.782Z,30.88
2019-03-27T21:54:45.798Z,32.07
2019-03-27T21:57:17.698Z,33.92
2019-03-27T21:59:48.412Z,31.73
2019-03-27T22:02:18.791Z,37.98
2019-03-27T22:04:48.699Z,36.83
2019-03-27T22:07:19.436Z,40.60
2019-03-27T22:09:49.575Z,40.85
2019-03-27T22:12:20.113Z,29.60
2019-03-27T22:14:51.300Z,31.33
2019-03-27T22:17:22.709Z,38.87
2019-03-27T22:19:53.463Z,41.27
2019-03-27T22:22:24.292Z,36.23
2019-03-27T22:24:55.308Z,36.90
2019-03-27T22:27:25.859Z,35.50
2019-03-27T22:29:56.052Z,38.77
2019-03-27T22:32:27.243Z,34.60
2019-03-27T22:34:57.813Z,34.10
2019-03-27T22:37:30.668Z,35.83
2019-03-27T22:40:01.016Z,30.75
2019-03-27T22:42:31.085Z,35.68
2019-03-27T22:45:01.003Z,37.50
2019-03-27T22:47:31.880Z,39.03
2019-03-27T22:50:02.297Z,35.27
2019-03-27T22:52:32.516Z,34.53
2019-03-27T22:55:02.794Z,39.63
2019-03-27T22:57:32.709Z,34.10
2019-03-27T23:00:02.625Z,34.35
2019-03-27T23:02:33.273Z,35.80
2019-03-27T23:05:03.922Z,41.63
2019-03-27T23:07:34.738Z,43.00
2019-03-27T23:10:06.052Z,37.43
2019-03-27T23:12:37.275Z,40.03
2019-03-27T23:15:08.679Z,36.63
2019-03-27T23:17:38.699Z,36.80
2019-03-27T23:20:13.965Z,35.05
2019-03-27T23:22:44.289Z,33.63
2019-03-27T23:25:15.017Z,36.38
2019-03-27T23:27:45.812Z,38.17
2019-03-27T23:30:17.099Z,44.60
2019-03-27T23:32:47.996Z,37.23
2019-03-27T23:35:18.657Z,35.36
2019-03-27T23:37:48.819Z,39.37
2019-03-27T23:40:19.568Z,36.58
2019-03-27T23:42:51.553Z,37.13
2019-03-27T23:45:22.080Z,40.87
2019-03-27T23:47:53.438Z,38.43
2019-03-27T23:50:28.900Z,35.07
2019-03-27T23:53:02.620Z,35.43
2019-03-27T23:55:33.109Z,42.73
2019-03-27T23:58:03.220Z,32.97
